
Distance (Route):
Temperature : -30.7°C
Humidity : 49.5%
Pressure : 349.7hPa| Receiver | Frames | First received | Last received |
|---|---|---|---|
| AUTORXJP | 106 | 2026-09-01 12:17:09 | 2026-09-01 13:13:36 |
| Receiver | Date | Latitude | Longitude | Direction | Speed | Altitude | Climb | Temperature | Humidity | Pressure | Voltage | Killtimer | Uptime | BKT | XDATA |
|---|---|---|---|---|---|---|---|---|---|---|---|---|---|---|---|
| AUTORXJP | 2026-09-01 13:13:36 | 44.03493 | 5.35536 | 73° | 78km/h | 8548m | -10.3m/s | -30.7°C | 49.5% | 349.7hPa | 0V | 00:00:00 | 00:00:00 | 00:00:00 | |
| AUTORXJP | 2026-09-01 13:13:05 | 44.03382 | 5.34926 | 77° | 86km/h | 8783m | -10.5m/s | -32.3°C | 37.6% | 338.1hPa | 0V | 00:00:00 | 00:00:00 | 00:00:00 | |
| AUTORXJP | 2026-09-01 13:12:03 | 44.03030 | 5.33099 | 73° | 97km/h | 9485m | -10.5m/s | -37.3°C | 49.8% | 305.6hPa | 0V | 00:00:00 | 00:00:00 | 00:00:00 | |
| AUTORXJP | 2026-09-01 13:11:32 | 44.02786 | 5.32110 | 72° | 89km/h | 9850m | -10.0m/s | -40.4°C | 34.8% | 289.7hPa | 0V | 00:00:00 | 00:00:00 | 00:00:00 | |
| AUTORXJP | 2026-09-01 13:11:01 | 44.02525 | 5.31167 | 73° | 89km/h | 10202m | -8.9m/s | -43.2°C | 31.4% | 275.1hPa | 0V | 00:00:00 | 00:00:00 | 00:00:00 | |
| AUTORXJP | 2026-09-01 13:10:30 | 44.02309 | 5.30187 | 71° | 97km/h | 10566m | -11.8m/s | -46.2°C | 28.5% | 260.3hPa | 0V | 00:00:00 | 00:00:00 | 00:00:00 | |
| AUTORXJP | 2026-09-01 13:09:59 | 44.02115 | 5.29216 | 73° | 89km/h | 10897m | -10.0m/s | -48.8°C | 19.6% | 247.4hPa | 0V | 00:00:00 | 00:00:00 | 00:00:00 | |
| AUTORXJP | 2026-09-01 13:09:28 | 44.01964 | 5.28376 | 78° | 78km/h | 11277m | -11.9m/s | -51.0°C | 20.1% | 233.3hPa | 0V | 00:00:00 | 00:00:00 | 00:00:00 | |
| AUTORXJP | 2026-09-01 13:08:57 | 44.01893 | 5.27593 | 80° | 68km/h | 11663m | -13.4m/s | -53.5°C | 17.1% | 219.7hPa | 0V | 00:00:00 | 00:00:00 | 00:00:00 | |
| AUTORXJP | 2026-09-01 13:08:26 | 44.01773 | 5.26686 | 79° | 89km/h | 12073m | -12.9m/s | -56.3°C | 11.0% | 206.0hPa | 0V | 00:00:00 | 00:00:00 | 00:00:00 | |
| AUTORXJP | 2026-09-01 13:07:23 | 44.01376 | 5.24591 | 70° | 108km/h | 12891m | -12.4m/s | -57.1°C | 2.5% | 180.7hPa | 0V | 00:00:00 | 00:00:00 | 00:00:00 | |
| AUTORXJP | 2026-09-01 13:06:52 | 44.01172 | 5.23524 | 75° | 97km/h | 13348m | -13.5m/s | -56.3°C | 1.2% | 168.0hPa | 0V | 00:00:00 | 00:00:00 | 00:00:00 | |
| AUTORXJP | 2026-09-01 13:06:21 | 44.01010 | 5.22541 | 79° | 86km/h | 13822m | -14.0m/s | -56.6°C | 0.6% | 155.8hPa | 0V | 00:00:00 | 00:00:00 | 00:00:00 | |
| AUTORXJP | 2026-09-01 13:05:50 | 44.00874 | 5.21634 | 74° | 89km/h | 14331m | -16.2m/s | -57.3°C | 0.0% | 143.6hPa | 0V | 00:00:00 | 00:00:00 | 00:00:00 | |
| AUTORXJP | 2026-09-01 13:05:19 | 44.00722 | 5.20756 | 77° | 78km/h | 14840m | -15.4m/s | -58.2°C | 0.0% | 132.3hPa | 0V | 00:00:00 | 00:00:00 | 00:00:00 | |
| AUTORXJP | 2026-09-01 13:04:48 | 44.00670 | 5.19934 | 83° | 68km/h | 15338m | -15.2m/s | -57.7°C | 0% | 122.2hPa | 0V | 00:00:00 | 00:00:00 | 00:00:00 | |
| AUTORXJP | 2026-09-01 13:04:17 | 44.00605 | 5.19293 | 72° | 47km/h | 15831m | -16.7m/s | -56.1°C | 0.0% | 112.7hPa | 0V | 00:00:00 | 00:00:00 | 00:00:00 | |
| AUTORXJP | 2026-09-01 13:03:46 | 44.00550 | 5.18797 | 91° | 35km/h | 16422m | -17.4m/s | -57.4°C | 0.0% | 102.6hPa | 0V | 00:00:00 | 00:00:00 | 00:00:00 | |
| AUTORXJP | 2026-09-01 13:03:15 | 44.00433 | 5.18389 | 62° | 38km/h | 16985m | -17.0m/s | -58.3°C | 0.0% | 93.7hPa | 0V | 00:00:00 | 00:00:00 | 00:00:00 | |
| AUTORXJP | 2026-09-01 13:02:44 | 44.00360 | 5.17879 | 88° | 49km/h | 17553m | -19.0m/s | -58.0°C | 0.0% | 85.4hPa | 0V | 00:00:00 | 00:00:00 | 00:00:00 | |
| AUTORXJP | 2026-09-01 13:02:13 | 44.00443 | 5.17513 | 101° | 13km/h | 18127m | -15.8m/s | -54.9°C | 0.0% | 77.8hPa | 0V | 00:00:00 | 00:00:00 | 00:00:00 | |
| AUTORXJP | 2026-09-01 13:01:42 | 44.00324 | 5.17431 | 50° | 35km/h | 18664m | -15.6m/s | -56.9°C | 0.0% | 71.4hPa | 0V | 00:00:00 | 00:00:00 | 00:00:00 | |
| AUTORXJP | 2026-09-01 13:01:11 | 44.00292 | 5.17143 | 94° | 7km/h | 19200m | -14.4m/s | -55.9°C | 0.0% | 65.5hPa | 0V | 00:00:00 | 00:00:00 | 00:00:00 | |
| AUTORXJP | 2026-09-01 13:00:39 | 44.00229 | 5.16940 | 92° | 18km/h | 19643m | -12.4m/s | -56.5°C | 0.0% | 61.0hPa | 0V | 00:00:00 | 00:00:00 | 00:00:00 | |
| AUTORXJP | 2026-09-01 13:00:08 | 44.00208 | 5.16744 | 135° | 16km/h | 20064m | -12.3m/s | -56.4°C | 0.0% | 56.9hPa | 0V | 00:00:00 | 00:00:00 | 00:00:00 | |
| AUTORXJP | 2026-09-01 12:59:37 | 44.00246 | 5.16669 | 181° | 4km/h | 20524m | -12.7m/s | -54.6°C | 0.0% | 52.9hPa | 0V | 00:00:00 | 00:00:00 | 00:00:00 | |
| AUTORXJP | 2026-09-01 12:59:06 | 44.00216 | 5.16684 | 25° | 9km/h | 20982m | -12.9m/s | -54.3°C | 0.0% | 49.1hPa | 0V | 00:00:00 | 00:00:00 | 00:00:00 | |
| AUTORXJP | 2026-09-01 12:58:35 | 44.00171 | 5.16744 | 316° | 44km/h | 21521m | -12.6m/s | -54.1°C | 0.0% | 45.0hPa | 0V | 00:00:00 | 00:00:00 | 00:00:00 | |
| AUTORXJP | 2026-09-01 12:58:04 | 43.99984 | 5.16709 | 92° | 2km/h | 21970m | -16.5m/s | -53.2°C | 0.0% | 41.9hPa | 0V | 00:00:00 | 00:00:00 | 00:00:00 | |
| AUTORXJP | 2026-09-01 12:57:33 | 43.99972 | 5.16623 | 33° | 9km/h | 22442m | -13.1m/s | -52.7°C | 0.0% | 38.8hPa | 0V | 00:00:00 | 00:00:00 | 00:00:00 | |
| AUTORXJP | 2026-09-01 12:57:02 | 44.00033 | 5.16763 | 286° | 42km/h | 22905m | -14.2m/s | -52.9°C | 0.0% | 36.0hPa | 0V | 00:00:00 | 00:00:00 | 00:00:00 | |
| AUTORXJP | 2026-09-01 12:56:00 | 43.99890 | 5.16969 | 8° | 29km/h | 23929m | -17.3m/s | -51.9°C | 0.0% | 30.4hPa | 0V | 00:00:00 | 00:00:00 | 00:00:00 | |
| AUTORXJP | 2026-09-01 12:55:29 | 43.99840 | 5.16964 | 189° | 37km/h | 24446m | -18.1m/s | -50.9°C | 0.0% | 28.0hPa | 0V | 00:00:00 | 00:00:00 | 00:00:00 | |
| AUTORXJP | 2026-09-01 12:54:57 | 43.99830 | 5.17153 | 228° | 22km/h | 24969m | -17.9m/s | -51.1°C | 0.0% | 25.7hPa | 0V | 00:00:00 | 00:00:00 | 00:00:00 | |
| AUTORXJP | 2026-09-01 12:54:26 | 43.99698 | 5.17246 | 319° | 27km/h | 25528m | -13.9m/s | -48.5°C | 0.0% | 23.5hPa | 0V | 00:00:00 | 00:00:00 | 00:00:00 | |
| AUTORXJP | 2026-09-01 12:53:55 | 43.99619 | 5.17193 | 220° | 27km/h | 26204m | -22.1m/s | -47.7°C | 0.0% | 21.0hPa | 0V | 00:00:00 | 00:00:00 | 00:00:00 | |
| AUTORXJP | 2026-09-01 12:53:25 | 43.99492 | 5.17218 | 66° | 51km/h | 26859m | -22.1m/s | -45.2°C | 0.0% | 18.9hPa | 0V | 00:00:00 | 00:00:00 | 00:00:00 | |
| AUTORXJP | 2026-09-01 12:52:54 | 43.99488 | 5.17237 | 336° | 53km/h | 27543m | -22.6m/s | -45.3°C | 0.0% | 16.9hPa | 0V | 00:00:00 | 00:00:00 | 00:00:00 | |
| AUTORXJP | 2026-09-01 12:52:22 | 43.99390 | 5.17128 | 293° | 22km/h | 28244m | -23.3m/s | -44.8°C | 0.0% | 15.0hPa | 0V | 00:00:00 | 00:00:00 | 00:00:00 | |
| AUTORXJP | 2026-09-01 12:51:51 | 43.99359 | 5.17113 | 234° | 18km/h | 29050m | -27.9m/s | -43.8°C | 0.0% | 13.1hPa | 0V | 00:00:00 | 00:00:00 | 00:00:00 | |
| AUTORXJP | 2026-09-01 12:51:20 | 43.99401 | 5.17145 | 315° | 68km/h | 29833m | 8.4m/s | -41.3°C | 0.0% | 11.5hPa | 0V | 00:00:00 | 00:00:00 | 00:00:00 | |
| AUTORXJP | 2026-09-01 12:50:49 | 43.99449 | 5.17125 | 56° | 58km/h | 29641m | 11.0m/s | -41.7°C | 0.0% | 11.8hPa | 0V | 00:00:00 | 00:00:00 | 00:00:00 | |
| AUTORXJP | 2026-09-01 12:50:18 | 43.99500 | 5.17078 | 9° | 62km/h | 29463m | 4.9m/s | -43.1°C | 0.0% | 12.2hPa | 0V | 00:00:00 | 00:00:00 | 00:00:00 | |
| AUTORXJP | 2026-09-01 12:49:47 | 43.99507 | 5.16904 | 231° | 38km/h | 29286m | 5.4m/s | -43.4°C | 0.0% | 12.6hPa | 0V | 00:00:00 | 00:00:00 | 00:00:00 | |
| AUTORXJP | 2026-09-01 12:49:16 | 43.99460 | 5.16866 | 66° | 42km/h | 29110m | 4.8m/s | -43.9°C | 0.0% | 13.0hPa | 0V | 00:00:00 | 00:00:00 | 00:00:00 | |
| AUTORXJP | 2026-09-01 12:48:45 | 43.99416 | 5.16962 | 268° | 18km/h | 28931m | 4.5m/s | -43.3°C | 0.0% | 13.4hPa | 0V | 00:00:00 | 00:00:00 | 00:00:00 | |
| AUTORXJP | 2026-09-01 12:48:14 | 43.99397 | 5.16998 | 329° | 4km/h | 28749m | 4.7m/s | -42.8°C | 0.0% | 13.8hPa | 0V | 00:00:00 | 00:00:00 | 00:00:00 | |
| AUTORXJP | 2026-09-01 12:47:42 | 43.99359 | 5.16931 | 222° | 9km/h | 28566m | 9.1m/s | -43.5°C | 0.0% | 14.2hPa | 0V | 00:00:00 | 00:00:00 | 00:00:00 | |
| AUTORXJP | 2026-09-01 12:47:11 | 43.99343 | 5.16855 | 52° | 11km/h | 28371m | 5.6m/s | -44.4°C | 0.0% | 14.7hPa | 0V | 00:00:00 | 00:00:00 | 00:00:00 | |
| AUTORXJP | 2026-09-01 12:46:40 | 43.99326 | 5.16740 | 11° | 24km/h | 28182m | 7.8m/s | -44.6°C | 0.0% | 15.2hPa | 0V | 00:00:00 | 00:00:00 | 00:00:00 | |
| AUTORXJP | 2026-09-01 12:46:09 | 43.99266 | 5.16570 | 100° | 20km/h | 27991m | 5.4m/s | -44.2°C | 0.0% | 15.7hPa | 0V | 00:00:00 | 00:00:00 | 00:00:00 | |
| AUTORXJP | 2026-09-01 12:45:38 | 43.99132 | 5.16358 | 24° | 20km/h | 27806m | 4.3m/s | -44.6°C | 0.0% | 16.2hPa | 0V | 00:00:00 | 00:00:00 | 00:00:00 | |
| AUTORXJP | 2026-09-01 12:45:07 | 43.99008 | 5.16327 | 94° | 11km/h | 27620m | 5.5m/s | -44.5°C | 0.0% | 16.7hPa | 0V | 00:00:00 | 00:00:00 | 00:00:00 | |
| AUTORXJP | 2026-09-01 12:44:36 | 43.98965 | 5.16414 | 5° | 9km/h | 27434m | 5.3m/s | -44.9°C | 0.0% | 17.2hPa | 0V | 00:00:00 | 00:00:00 | 00:00:00 | |
| AUTORXJP | 2026-09-01 12:44:05 | 43.98936 | 5.16440 | 138° | 16km/h | 27251m | 6.4m/s | -45.2°C | 0.0% | 17.7hPa | 0V | 00:00:00 | 00:00:00 | 00:00:00 | |
| AUTORXJP | 2026-09-01 12:43:34 | 43.98952 | 5.16387 | 90° | 22km/h | 27072m | 6.0m/s | -44.8°C | 0.0% | 18.2hPa | 0V | 00:00:00 | 00:00:00 | 00:00:00 | |
| AUTORXJP | 2026-09-01 12:43:03 | 43.98892 | 5.16280 | 37° | 16km/h | 26898m | 6.7m/s | -45.8°C | 0.0% | 18.8hPa | 0V | 00:00:00 | 00:00:00 | 00:00:00 | |
| AUTORXJP | 2026-09-01 12:42:32 | 43.98687 | 5.16184 | 350° | 18km/h | 26715m | 6.2m/s | -46.9°C | 0% | 19.4hPa | 0V | 00:00:00 | 00:00:00 | 00:00:00 | |
| AUTORXJP | 2026-09-01 12:42:01 | 43.98480 | 5.16249 | 319° | 9km/h | 26536m | 4.2m/s | -46.7°C | 0.0% | 20.0hPa | 0V | 00:00:00 | 00:00:00 | 00:00:00 | |
| AUTORXJP | 2026-09-01 12:41:29 | 43.98396 | 5.16346 | 354° | 18km/h | 26363m | 4.0m/s | -47.1°C | 0.0% | 20.5hPa | 0V | 00:00:00 | 00:00:00 | 00:00:00 | |
| AUTORXJP | 2026-09-01 12:40:58 | 43.98304 | 5.16364 | 328° | 18km/h | 26181m | 3.9m/s | -46.9°C | 0.0% | 21.1hPa | 0V | 00:00:00 | 00:00:00 | 00:00:00 | |
| AUTORXJP | 2026-09-01 12:40:27 | 43.98203 | 5.16394 | 54° | 7km/h | 25997m | 3.7m/s | -46.6°C | 0.0% | 21.8hPa | 0V | 00:00:00 | 00:00:00 | 00:00:00 | |
| AUTORXJP | 2026-09-01 12:39:56 | 43.98103 | 5.16369 | 51° | 16km/h | 25822m | 8.7m/s | -47.2°C | 0.0% | 22.4hPa | 0V | 00:00:00 | 00:00:00 | 00:00:00 | |
| AUTORXJP | 2026-09-01 12:39:25 | 43.98034 | 5.16307 | 55° | 22km/h | 25642m | 6.0m/s | -47.5°C | 0.0% | 23.1hPa | 0V | 00:00:00 | 00:00:00 | 00:00:00 | |
| AUTORXJP | 2026-09-01 12:38:54 | 43.97872 | 5.16279 | 8° | 27km/h | 25465m | 5.9m/s | -47.9°C | 0.0% | 23.7hPa | 0V | 00:00:00 | 00:00:00 | 00:00:00 | |
| AUTORXJP | 2026-09-01 12:38:23 | 43.97749 | 5.16211 | 54° | 16km/h | 25294m | 6.0m/s | -48.9°C | 0.0% | 24.5hPa | 0V | 00:00:00 | 00:00:00 | 00:00:00 | |
| AUTORXJP | 2026-09-01 12:37:52 | 43.97563 | 5.16259 | 332° | 26km/h | 25115m | 8.4m/s | -50.6°C | 0.0% | 25.2hPa | 0V | 00:00:00 | 00:00:00 | 00:00:00 | |
| AUTORXJP | 2026-09-01 12:37:21 | 43.97445 | 5.16477 | 288° | 33km/h | 24945m | 7.6m/s | -50.9°C | 0.0% | 25.9hPa | 0V | 00:00:00 | 00:00:00 | 00:00:00 | |
| AUTORXJP | 2026-09-01 12:36:50 | 43.97448 | 5.16705 | 250° | 20km/h | 24770m | 3.8m/s | -50.7°C | 0.0% | 26.6hPa | 0V | 00:00:00 | 00:00:00 | 00:00:00 | |
| AUTORXJP | 2026-09-01 12:36:19 | 43.97465 | 5.16880 | 2° | 7km/h | 24599m | 6.6m/s | -51.3°C | 0.0% | 27.4hPa | 0V | 00:00:00 | 00:00:00 | 00:00:00 | |
| AUTORXJP | 2026-09-01 12:35:47 | 43.97526 | 5.16983 | 200° | 15km/h | 24425m | 3.8m/s | -51.0°C | 0.0% | 28.2hPa | 0V | 00:00:00 | 00:00:00 | 00:00:00 | |
| AUTORXJP | 2026-09-01 12:35:16 | 43.97498 | 5.16920 | 50° | 13km/h | 24251m | 3.4m/s | -51.5°C | 0.0% | 29.0hPa | 0V | 00:00:00 | 00:00:00 | 00:00:00 | |
| AUTORXJP | 2026-09-01 12:34:45 | 43.97412 | 5.16987 | 251° | 16km/h | 24070m | 6.3m/s | -51.6°C | 0.0% | 29.9hPa | 0V | 00:00:00 | 00:00:00 | 00:00:00 | |
| AUTORXJP | 2026-09-01 12:34:14 | 43.97385 | 5.17121 | 1° | 4km/h | 23894m | 3.0m/s | -52.3°C | 0.0% | 30.7hPa | 0V | 00:00:00 | 00:00:00 | 00:00:00 | |
| AUTORXJP | 2026-09-01 12:33:43 | 43.97373 | 5.17284 | 262° | 15km/h | 23718m | 3.9m/s | -52.4°C | 0.0% | 31.6hPa | 0V | 00:00:00 | 00:00:00 | 00:00:00 | |
| AUTORXJP | 2026-09-01 12:33:12 | 43.97414 | 5.17361 | 183° | 7km/h | 23545m | 7.9m/s | -52.3°C | 0.0% | 32.5hPa | 0V | 00:00:00 | 00:00:00 | 00:00:00 | |
| AUTORXJP | 2026-09-01 12:32:41 | 43.97410 | 5.17372 | 30° | 11km/h | 23371m | 4.3m/s | -51.8°C | 0.0% | 33.5hPa | 0V | 00:00:00 | 00:00:00 | 00:00:00 | |
| AUTORXJP | 2026-09-01 12:32:10 | 43.97322 | 5.17413 | 249° | 5km/h | 23200m | 3.5m/s | -51.4°C | 0.0% | 34.4hPa | 0V | 00:00:00 | 00:00:00 | 00:00:00 | |
| AUTORXJP | 2026-09-01 12:31:39 | 43.97228 | 5.17507 | 313° | 38km/h | 23033m | 3.4m/s | -52.3°C | 0.0% | 35.3hPa | 0V | 00:00:00 | 00:00:00 | 00:00:00 | |
| AUTORXJP | 2026-09-01 12:31:08 | 43.97141 | 5.17734 | 282° | 15km/h | 22866m | 5.8m/s | -52.2°C | 0.0% | 36.3hPa | 0V | 00:00:00 | 00:00:00 | 00:00:00 | |
| AUTORXJP | 2026-09-01 12:30:37 | 43.97171 | 5.17986 | 221° | 27km/h | 22698m | 2.5m/s | -52.3°C | 0.0% | 37.3hPa | 0V | 00:00:00 | 00:00:00 | 00:00:00 | |
| AUTORXJP | 2026-09-01 12:30:06 | 43.97268 | 5.18052 | 200° | 15km/h | 22524m | 7.7m/s | -52.0°C | 0.0% | 38.4hPa | 0V | 00:00:00 | 00:00:00 | 00:00:00 | |
| AUTORXJP | 2026-09-01 12:29:35 | 43.97320 | 5.18043 | 185° | 13km/h | 22354m | 4.5m/s | -52.3°C | 0.0% | 39.5hPa | 0V | 00:00:00 | 00:00:00 | 00:00:00 | |
| AUTORXJP | 2026-09-01 12:29:03 | 43.97343 | 5.17934 | 67° | 4km/h | 22182m | 4.5m/s | -52.7°C | 0.0% | 40.5hPa | 0V | 00:00:00 | 00:00:00 | 00:00:00 | |
| AUTORXJP | 2026-09-01 12:28:33 | 43.97286 | 5.17763 | 26° | 20km/h | 22016m | 7.7m/s | -52.9°C | 0.0% | 41.6hPa | 0V | 00:00:00 | 00:00:00 | 00:00:00 | |
| AUTORXJP | 2026-09-01 12:28:01 | 43.97191 | 5.17682 | 329° | 15km/h | 21843m | 5.7m/s | -52.8°C | 0.0% | 42.8hPa | 0V | 00:00:00 | 00:00:00 | 00:00:00 | |
| AUTORXJP | 2026-09-01 12:27:30 | 43.96985 | 5.17658 | 351° | 38km/h | 21678m | 3.7m/s | -53.7°C | 0.0% | 44.0hPa | 0V | 00:00:00 | 00:00:00 | 00:00:00 | |
| AUTORXJP | 2026-09-01 12:26:59 | 43.96807 | 5.17746 | 314° | 16km/h | 21515m | 6.1m/s | -53.4°C | 0.0% | 45.2hPa | 0V | 00:00:00 | 00:00:00 | 00:00:00 | |
| AUTORXJP | 2026-09-01 12:26:28 | 43.96757 | 5.17887 | 295° | 0km/h | 21356m | 4.3m/s | -53.2°C | 0.0% | 46.3hPa | 0V | 00:00:00 | 00:00:00 | 00:00:00 | |
| AUTORXJP | 2026-09-01 12:25:57 | 43.96728 | 5.17889 | 331° | 7km/h | 21194m | 4.3m/s | -53.3°C | 0.0% | 47.5hPa | 0V | 00:00:00 | 00:00:00 | 00:00:00 | |
| AUTORXJP | 2026-09-01 12:25:26 | 43.96663 | 5.17957 | 299° | 18km/h | 21036m | 5.2m/s | -53.4°C | 0.0% | 48.8hPa | 0V | 00:00:00 | 00:00:00 | 00:00:00 | |
| AUTORXJP | 2026-09-01 12:24:55 | 43.96621 | 5.17960 | 71° | 18km/h | 20876m | 6.1m/s | -54.0°C | 0.0% | 50.0hPa | 0V | 00:00:00 | 00:00:00 | 00:00:00 | |
| AUTORXJP | 2026-09-01 12:24:24 | 43.96544 | 5.17910 | 175° | 4km/h | 20720m | 4.8m/s | -54.1°C | 0.0% | 51.3hPa | 0V | 00:00:00 | 00:00:00 | 00:00:00 | |
| AUTORXJP | 2026-09-01 12:23:53 | 43.96565 | 5.17980 | 241° | 9km/h | 20565m | 5.1m/s | -54.5°C | 0.0% | 52.6hPa | 0V | 00:00:00 | 00:00:00 | 00:00:00 | |
| AUTORXJP | 2026-09-01 12:23:22 | 43.96575 | 5.17936 | 264° | 5km/h | 20405m | 3.0m/s | -54.7°C | 0.0% | 54.0hPa | 0V | 00:00:00 | 00:00:00 | 00:00:00 | |
| AUTORXJP | 2026-09-01 12:22:51 | 43.96601 | 5.17919 | 188° | 13km/h | 20248m | 3.6m/s | -55.1°C | 0.0% | 55.4hPa | 0V | 00:00:00 | 00:00:00 | 00:00:00 | |
| AUTORXJP | 2026-09-01 12:22:20 | 43.96697 | 5.17822 | 144° | 22km/h | 20088m | 6.5m/s | -54.7°C | 0.0% | 56.8hPa | 0V | 00:00:00 | 00:00:00 | 00:00:00 | |
| AUTORXJP | 2026-09-01 12:21:48 | 43.96800 | 5.17624 | 134° | 29km/h | 19924m | 6.0m/s | -55.2°C | 0.0% | 58.4hPa | 0V | 00:00:00 | 00:00:00 | 00:00:00 | |
| AUTORXJP | 2026-09-01 12:21:18 | 43.96778 | 5.17374 | 51° | 20km/h | 19771m | 3.5m/s | -55.6°C | 0.0% | 59.8hPa | 0V | 00:00:00 | 00:00:00 | 00:00:00 | |
| AUTORXJP | 2026-09-01 12:20:47 | 43.96780 | 5.17174 | 107° | 31km/h | 19603m | 5.4m/s | -56.0°C | 0.0% | 61.4hPa | 0V | 00:00:00 | 00:00:00 | 00:00:00 | |
| AUTORXJP | 2026-09-01 12:20:15 | 43.96751 | 5.16920 | 80° | 11km/h | 19451m | 5.9m/s | -55.8°C | 0.0% | 63.0hPa | 0V | 00:00:00 | 00:00:00 | 00:00:00 | |
| AUTORXJP | 2026-09-01 12:19:13 | 43.96680 | 5.16551 | 106° | 20km/h | 19149m | 6.2m/s | -56.4°C | 0.0% | 66.2hPa | 0V | 00:00:00 | 00:00:00 | 00:00:00 | |
| AUTORXJP | 2026-09-01 12:18:42 | 43.96682 | 5.16286 | 66° | 31km/h | 18994m | 4.5m/s | -57.1°C | 0.0% | 67.8hPa | 0V | 00:00:00 | 00:00:00 | 00:00:00 | |
| AUTORXJP | 2026-09-01 12:18:11 | 43.96595 | 5.15906 | 54° | 46km/h | 18839m | 6.1m/s | -57.6°C | 0.0% | 69.5hPa | 0V | 00:00:00 | 00:00:00 | 00:00:00 | |
| AUTORXJP | 2026-09-01 12:17:40 | 43.96408 | 5.15593 | 64° | 33km/h | 18675m | 6.7m/s | -56.8°C | 0.0% | 71.4hPa | 0V | 00:00:00 | 00:00:00 | 00:00:00 | |
| AUTORXJP | 2026-09-01 12:17:09 | 43.96230 | 5.15412 | 356° | 20km/h | 18514m | 6.6m/s | -55.9°C | 0.0% | 73.3hPa | 0V | 00:00:00 | 00:00:00 | 00:00:00 |